»·PEaware :: N360BG KOLM-KYKM

N360BG :: KOLM-KYKM

FLIGHT INFORMATION

Flight Status: Arrived
Operator: Privately registered:
United States
More flights under this callsign
Pilot: Brandon G. (13)
Aircraft: Unknown
(EPIC)
More flights by this aircraft type
Origin: KOLM Olympia
United States
Destination: KYKM Yakima Air Term/Mcallister
United States
More flights between these airports :: More routes between these airports
Route: +OLM V204 YKM
File this flight plan on PilotEdge
Remarks:
Altitude:
(Current/Filed)
17,000ft
Speed:
(Current/Filed)
325kts
Departed: 11-Jan-18 04:21 PM
Arrived: 11-Jan-18 04:52 PM
Distance/Time
Traveled:
100nm/0:31
Distance/Time
To Go:
Arrived

Flight Plot

Page will automatically refresh every two minutes.

Flight plan parsing failed; only flown route is shown


Map Options




Map Legend


Flown Route
Filed Route
Departure Airport
Arrival Airport
Navaid (VOR, NDB)
Fix

Horizontal Profiles

Position Reports

Time Latitude Longitude Heading Altitude Ground
Speed
11-Jan-18 16:15 46.972680 -122.895176 319 204ft 0kts
11-Jan-18 16:16 46.972680 -122.895176 319 204ft 0kts
11-Jan-18 16:17 46.972680 -122.895176 319 204ft 0kts
11-Jan-18 16:18 46.972680 -122.895176 319 204ft 0kts
11-Jan-18 16:19 46.972680 -122.895176 319 204ft 0kts
11-Jan-18 16:20 46.972680 -122.895176 319 204ft 0kts
11-Jan-18 16:21 46.972680 -122.895176 319 204ft 0kts
11-Jan-18 16:22 46.972680 -122.895176 319 204ft 0kts
11-Jan-18 16:23 46.972680 -122.895176 319 204ft 0kts
11-Jan-18 16:24 46.973665 -122.897917 322 200ft 22kts
11-Jan-18 16:25 46.975984 -122.901399 280 195ft 0kts
11-Jan-18 16:26 46.975984 -122.901399 280 195ft 0kts
11-Jan-18 16:27 46.968449 -122.904878 188 268ft 116kts
11-Jan-18 16:28 46.954740 -122.860331 75 2135ft 212kts
11-Jan-18 16:29 46.971328 -122.780495 75 4474ft 218kts
11-Jan-18 16:30 46.967794 -122.702731 148 7601ft 210kts
11-Jan-18 16:31 46.920802 -122.652459 153 10380ft 228kts
11-Jan-18 16:32 46.877230 -122.578242 129 12544ft 272kts
11-Jan-18 16:33 46.842316 -122.476350 123 13837ft 304kts
11-Jan-18 16:34 46.807845 -122.369444 121 14551ft 310kts
11-Jan-18 16:35 46.775114 -122.264931 121 15133ft 314kts
11-Jan-18 16:36 46.740224 -122.153597 121 15640ft 317kts
11-Jan-18 16:37 46.705049 -122.041815 121 16114ft 319kts
11-Jan-18 16:38 46.669974 -121.930823 121 16590ft 319kts
11-Jan-18 16:39 46.634320 -121.818510 121 17012ft 322kts
11-Jan-18 16:40 46.598438 -121.705992 121 17021ft 332kts
11-Jan-18 16:41 46.579440 -121.580562 93 17029ft 345kts
11-Jan-18 16:42 46.578102 -121.445720 92 16699ft 355kts
11-Jan-18 16:43 46.577505 -121.312426 92 15987ft 363kts
11-Jan-18 16:44 46.576825 -121.181465 92 15109ft 369kts
11-Jan-18 16:45 46.576090 -121.063086 92 14160ft 373kts
11-Jan-18 16:46 46.574840 -120.897366 93 12163ft 349kts
11-Jan-18 16:47 46.553088 -120.776236 114 10265ft 316kts
11-Jan-18 16:48 46.526872 -120.686499 114 8995ft 277kts
11-Jan-18 16:49 46.500217 -120.598833 114 8512ft 238kts
11-Jan-18 16:50 46.472142 -120.513405 114 6990ft 244kts
11-Jan-18 16:51 46.442302 -120.427496 114 5458ft 247kts
11-Jan-18 16:52 46.437181 -120.350838 18 4983ft 178kts
11-Jan-18 16:53 46.481149 -120.343798 316 3442ft 175kts
11-Jan-18 16:54 46.511546 -120.392626 310 2586ft 175kts
11-Jan-18 16:55 46.541744 -120.447007 299 1995ft 173kts
11-Jan-18 16:56 46.557638 -120.501248 290 1316ft 100kts
11-Jan-18 16:57 46.566834 -120.536700 287 1061ft 82kts
11-Jan-18 16:58 46.570612 -120.549443 21 1079ft 10kts
11-Jan-18 16:59 46.570638 -120.547161 112 1075ft 19kts
11-Jan-18 17:00 46.570402 -120.542545 88 1068ft 0kts
11-Jan-18 17:01 46.570403 -120.542545 88 1068ft 0kts
11-Jan-18 17:02 46.570403 -120.542545 88 1068ft 0kts
11-Jan-18 17:03 46.570403 -120.542545 88 1068ft 0kts
11-Jan-18 17:04 46.570403 -120.542545 88 1068ft 0kts
11-Jan-18 17:05 46.570403 -120.542545 88 1068ft 0kts
11-Jan-18 17:06 46.570403 -120.542545 88 1068ft 0kts
11-Jan-18 17:07 46.570403 -120.542545 88 1068ft 0kts
11-Jan-18 17:08 46.570403 -120.542545 88 1068ft 0kts
11-Jan-18 17:09 46.570403 -120.542545 88 1068ft 0kts
11-Jan-18 17:10 46.570403 -120.542545 88 1068ft 0kts

Navigation Log

Ident Type
Flight plan parsing failed, navigation log unavailable